Newton Highlands, Massachusetts
Current Conditions -  °F | °C
As of 6:53 PM on Saturday 20 Dec 2014 (Local Time) from KOWD Reporting Station
Haze Haze  
Wind Chill: 29°   Ceiling: 1500
Heat Index: 33°   Visibility: 5mi
Dew Point: 28°   Wind: 5mph
Humidity: 82%   Direction: 360°N
Pressure: 30.29"   Gusts: NA
Location:  42.32°N, 71.21°W
Report Text: KOWD 202353Z 36004KT 5SM HZ BKN015 OVC047 01/M02 A3029 RMK AO2 SNB2255E11B34E53 SLP259 P0000 60000 T00061022 10011 20006 53009
Loading
Personal Weather Stations






























Interactive Weather Map New forecast layout! Learn more

10-Day Weather Forecast

Advertisements
Track Severe Weather on mobile